Time;durP1;ratioP1;P1;durP2;ratioP2;P2;SDS_P1;SDS_P2;PMS_P1;PMS_P2;Temp;Humidity;BMP_temperature;BMP_pressure;BME280_temperature;BME280_humidity;BME280_pressure;Samples;Min_cycle;Max_cycle;Signal;HPM_P1;HPM_P2
2021/05/17 00:01:21;;;;;;;5.50;1.30;;;13.10;98.00;;;;;;5036378;28;20448;-71
2021/05/17 00:03:50;;;;;;;2.17;1.20;;;13.10;98.00;;;;;;5036366;28;20029;-71
2021/05/17 00:06:17;;;;;;;2.75;1.10;;;13.10;98.00;;;;;;5036418;28;20041;-71
2021/05/17 00:08:45;;;;;;;1.80;1.23;;;13.20;98.00;;;;;;5036677;28;20024;-71
2021/05/17 00:11:12;;;;;;;2.20;1.10;;;13.20;98.00;;;;;;5036615;28;20029;-71
2021/05/17 00:13:38;;;;;;;2.38;1.15;;;13.20;98.00;;;;;;5036587;28;20025;-71
2021/05/17 00:16:04;;;;;;;4.97;1.08;;;13.10;98.00;;;;;;5036500;28;20071;-71
2021/05/17 00:18:29;;;;;;;1.65;1.00;;;13.10;98.00;;;;;;5036276;28;20041;-71
2021/05/17 00:20:55;;;;;;;1.80;1.00;;;13.00;98.00;;;;;;5036308;28;20021;-71
2021/05/17 00:23:21;;;;;;;5.40;1.20;;;13.00;98.00;;;;;;5036596;28;20333;-71
2021/05/17 00:25:47;;;;;;;1.48;0.77;;;12.90;98.00;;;;;;5036334;28;20022;-71
2021/05/17 00:28:13;;;;;;;2.70;1.17;;;12.90;98.00;;;;;;5036184;28;20071;-71
2021/05/17 00:30:39;;;;;;;1.40;0.80;;;13.00;98.00;;;;;;5036478;28;20033;-71
2021/05/17 00:33:05;;;;;;;1.13;0.70;;;13.00;98.00;;;;;;5036396;28;20318;-71
2021/05/17 00:35:31;;;;;;;1.77;1.00;;;13.10;98.00;;;;;;5036062;28;20024;-71
2021/05/17 00:37:57;;;;;;;1.90;0.80;;;13.10;98.00;;;;;;5036437;28;20021;-71
2021/05/17 00:40:24;;;;;;;1.55;0.98;;;13.20;98.00;;;;;;5036352;28;20299;-71
2021/05/17 00:42:51;;;;;;;1.40;0.70;;;13.20;98.00;;;;;;5036434;28;20029;-71
2021/05/17 00:45:18;;;;;;;4.85;1.02;;;13.10;98.00;;;;;;5036294;28;20101;-71
2021/05/17 00:47:47;;;;;;;1.20;0.82;;;13.10;98.00;;;;;;5036020;28;20035;-71
2021/05/17 00:50:17;;;;;;;1.60;0.77;;;13.10;98.00;;;;;;5035994;28;20026;-71
2021/05/17 00:52:43;;;;;;;3.38;1.10;;;13.00;98.00;;;;;;5035905;28;20029;-71
2021/05/17 00:55:09;;;;;;;2.20;0.88;;;13.00;98.00;;;;;;5036065;28;20025;-71
2021/05/17 00:57:35;;;;;;;1.70;0.88;;;13.00;98.00;;;;;;5036550;28;20071;-71
2021/05/17 01:00:05;;;;;;;1.88;0.80;;;13.00;98.00;;;;;;5039727;28;20030;-71
2021/05/17 01:02:30;;;;;;;1.58;0.80;;;13.10;98.00;;;;;;5039739;28;20330;-71
2021/05/17 01:04:56;;;;;;;2.30;0.90;;;13.20;98.00;;;;;;5039297;28;20029;-71
2021/05/17 01:07:26;;;;;;;1.35;0.98;;;13.20;98.00;;;;;;5039634;28;20039;-71
2021/05/17 01:09:56;;;;;;;3.78;1.48;;;13.20;98.00;;;;;;5039614;28;20044;-71
2021/05/17 01:12:22;;;;;;;1.83;1.35;;;13.30;98.00;;;;;;5039168;28;20416;-71
2021/05/17 01:14:48;;;;;;;4.65;1.33;;;13.10;98.00;;;;;;5039457;28;20022;-71
2021/05/17 01:17:14;;;;;;;474.70;15.73;;;13.00;98.00;;;;;;5039415;28;20036;-71
2021/05/17 01:19:52;;;;;;;365.75;11.10;;;12.90;98.00;;;;;;5039075;28;20025;-71
2021/05/17 01:22:23;;;;;;;116.05;4.43;;;12.80;98.00;;;;;;5039117;28;20057;-71
2021/05/17 01:24:49;;;;;;;2.30;1.05;;;12.80;98.00;;;;;;5039086;28;20026;-71
2021/05/17 01:27:15;;;;;;;3.75;1.20;;;12.80;98.00;;;;;;5038790;28;20057;-71
2021/05/17 01:29:41;;;;;;;2.10;1.23;;;12.80;98.00;;;;;;5038881;28;20026;-71
2021/05/17 01:32:09;;;;;;;1.67;1.30;;;12.90;98.00;;;;;;5038844;28;20033;-71
2021/05/17 01:34:36;;;;;;;3.67;1.08;;;13.00;98.00;;;;;;5038830;28;20022;-71
2021/05/17 01:37:03;;;;;;;4.60;1.20;;;13.10;98.00;;;;;;5038782;28;20104;-71
2021/05/17 01:39:29;;;;;;;4.85;1.10;;;13.10;98.00;;;;;;5038749;28;20021;-71
2021/05/17 01:41:55;;;;;;;2.92;1.42;;;13.10;98.00;;;;;;5038731;28;20433;-71
2021/05/17 01:44:24;;;;;;;2.47;1.20;;;13.10;98.00;;;;;;5038566;28;20029;-71
2021/05/17 01:46:51;;;;;;;1.88;1.25;;;13.10;98.00;;;;;;5038609;28;20037;-71
2021/05/17 01:49:19;;;;;;;3.88;1.50;;;13.20;98.00;;;;;;5038865;28;20317;-71
2021/05/17 01:51:51;;;;;;;2.28;1.20;;;13.20;98.00;;;;;;5038386;28;20030;-71
2021/05/17 01:54:17;;;;;;;2.92;1.70;;;13.20;98.00;;;;;;5038361;28;20029;-70
2021/05/17 01:56:46;;;;;;;1.75;1.65;;;13.30;98.00;;;;;;5038442;28;20029;-71
2021/05/17 01:59:12;;;;;;;1.45;1.10;;;13.30;98.00;;;;;;5038334;28;20117;-71
2021/05/17 02:01:38;;;;;;;5.65;1.75;;;13.20;98.00;;;;;;5038633;28;20065;-71
2021/05/17 02:04:05;;;;;;;2.80;1.58;;;13.20;98.00;;;;;;5038412;28;20028;-71
2021/05/17 02:06:31;;;;;;;5.90;1.60;;;13.10;98.00;;;;;;5038236;28;20040;-71
2021/05/17 02:08:57;;;;;;;4.07;1.52;;;13.10;98.00;;;;;;5038227;28;20112;-71
2021/05/17 02:11:24;;;;;;;2.63;1.63;;;13.10;98.00;;;;;;5038331;28;20025;-70
2021/05/17 02:13:51;;;;;;;2.85;1.50;;;13.20;98.00;;;;;;5038034;28;20113;-71
2021/05/17 02:16:17;;;;;;;2.45;1.65;;;13.10;98.00;;;;;;5038328;28;20202;-70
2021/05/17 02:18:45;;;;;;;2.13;1.40;;;13.20;98.00;;;;;;5038251;28;20017;-71
2021/05/17 02:21:13;;;;;;;2.65;1.60;;;13.20;98.00;;;;;;5037881;28;20079;-71
2021/05/17 02:23:39;;;;;;;2.05;1.63;;;13.30;98.00;;;;;;5037940;28;20083;-71
2021/05/17 02:26:05;;;;;;;5.95;1.52;;;13.30;98.00;;;;;;5037809;28;20058;-71
2021/05/17 02:28:34;;;;;;;2.08;1.30;;;13.30;98.00;;;;;;5038057;28;20030;-70
2021/05/17 02:31:01;;;;;;;98.95;4.25;;;13.20;98.00;;;;;;5038002;28;20103;-71
2021/05/17 02:33:27;;;;;;;89.03;4.22;;;13.20;98.00;;;;;;5037645;28;20033;-71
2021/05/17 02:35:53;;;;;;;3.60;1.27;;;13.10;98.00;;;;;;5037906;28;20033;-70
2021/05/17 02:38:19;;;;;;;1.90;1.25;;;12.90;98.00;;;;;;5037602;28;20025;-70
2021/05/17 02:40:45;;;;;;;2.28;1.48;;;12.80;98.00;;;;;;5037564;28;20025;-70
2021/05/17 02:43:12;;;;;;;1.58;1.40;;;12.80;98.00;;;;;;5037850;28;20029;-70
2021/05/17 02:45:40;;;;;;;2.53;1.58;;;12.90;98.00;;;;;;5037715;28;20052;-70
2021/05/17 02:48:07;;;;;;;3.83;1.50;;;12.90;98.00;;;;;;5037715;28;20024;-71
2021/05/17 02:50:39;;;;;;;3.28;1.42;;;13.00;98.00;;;;;;5037338;28;20440;-70
2021/05/17 02:53:45;;;;;;;69.60;3.55;;;12.90;98.00;;;;;;5037593;28;20060;-71
2021/05/17 02:56:16;;;;;;;162.10;5.65;;;12.90;98.00;;;;;;5037731;28;20425;-71
2021/05/17 02:58:45;;;;;;;218.70;5.32;;;13.00;98.00;;;;;;5037295;28;20104;-70
2021/05/17 03:01:14;;;;;;;179.40;4.10;;;13.00;98.00;;;;;;5037156;28;20028;-70
2021/05/17 03:03:47;;;;;;;0.90;0.40;;;12.90;98.00;;;;;;5037230;28;20025;-70
2021/05/17 03:06:27;;;;;;;0.65;0.30;;;12.90;98.00;;;;;;5037153;28;20123;-70
2021/05/17 03:08:59;;;;;;;0.30;0.20;;;12.90;98.00;;;;;;5037449;28;20033;-70
2021/05/17 03:11:27;;;;;;;1.25;0.45;;;12.90;98.00;;;;;;5037276;28;20030;-71
2021/05/17 03:13:54;;;;;;;0.70;0.35;;;12.90;98.00;;;;;;5036968;28;20107;-70
2021/05/17 03:16:25;;;;;;;1.75;0.30;;;12.80;98.00;;;;;;5036962;28;20025;-72
2021/05/17 03:18:52;;;;;;;20.67;1.25;;;12.60;98.00;;;;;;5036969;28;20109;-72
2021/05/17 03:21:20;;;;;;;1.35;0.30;;;12.40;98.00;;;;;;5036539;28;20147;-73
2021/05/17 03:23:50;;;;;;;0.57;0.40;;;12.20;98.00;;;;;;5036878;28;20021;-73
2021/05/17 03:26:18;;;;;;;2.67;0.30;;;12.20;98.00;;;;;;5036554;28;20057;-73
2021/05/17 03:28:44;;;;;;;6.72;0.40;;;12.20;98.00;;;;;;5037167;28;20057;-70
2021/05/17 03:31:10;;;;;;;16.08;0.98;;;12.20;98.00;;;;;;5036739;28;20108;-71
2021/05/17 03:33:36;;;;;;;1054.15;35.78;;;12.30;98.00;;;;;;5036705;28;20030;-71
2021/05/17 03:36:01;;;;;;;2.75;0.70;;;12.30;98.00;;;;;;5036955;28;20021;-71
2021/05/17 03:38:27;;;;;;;5.47;0.35;;;12.30;98.00;;;;;;5036663;28;20033;-71
2021/05/17 03:40:53;;;;;;;2.17;0.25;;;12.30;98.00;;;;;;5036617;28;20025;-71
2021/05/17 03:43:19;;;;;;;3.60;0.20;;;12.20;95.40;;;;;;5036983;28;20053;-71
2021/05/17 03:45:45;;;;;;;12.98;0.45;;;11.90;93.30;;;;;;5036857;28;20099;-71
2021/05/17 03:48:10;;;;;;;3.53;0.30;;;11.60;94.20;;;;;;5036638;28;20116;-72
2021/05/17 03:50:36;;;;;;;43.50;1.35;;;11.20;94.20;;;;;;5036852;28;20025;-71
2021/05/17 03:53:02;;;;;;;2.45;0.20;;;10.70;96.10;;;;;;5036823;28;20029;-72
2021/05/17 03:55:27;;;;;;;7.78;0.40;;;10.50;94.40;;;;;;5036833;28;20163;-71
2021/05/17 03:57:56;;;;;;;8.05;0.52;;;10.20;96.90;;;;;;5036471;28;20040;-71
2021/05/17 04:00:22;;;;;;;17.60;1.00;;;10.10;95.80;;;;;;5036401;28;20033;-70
2021/05/17 04:02:48;;;;;;;4.78;0.30;;;10.00;98.00;;;;;;5036784;28;20035;-73
2021/05/17 04:05:32;;;;;;;3.70;0.28;;;9.90;97.00;;;;;;5036692;28;20029;-71
2021/05/17 04:15:42;;;;;;;0.68;0.10;;;9.50;97.00;;;;;;5036725;28;20030;-71
2021/05/17 04:18:08;;;;;;;0.15;0.10;;;9.60;97.00;;;;;;5036606;28;20023;-71
2021/05/17 04:20:33;;;;;;;2.53;0.13;;;9.70;96.30;;;;;;5036258;28;20022;-71
2021/05/17 04:22:59;;;;;;;1.65;0.20;;;9.70;95.80;;;;;;5036617;28;20026;-71
2021/05/17 04:25:25;;;;;;;1.42;0.30;;;9.70;94.80;;;;;;5036555;28;20026;-71
2021/05/17 04:27:51;;;;;;;0.28;0.10;;;9.70;95.40;;;;;;5036149;28;20354;-71
2021/05/17 04:30:17;;;;;;;1.10;0.10;;;9.80;95.90;;;;;;5036205;28;20030;-71
2021/05/17 04:32:43;;;;;;;0.55;0.10;;;9.80;94.20;;;;;;5038910;28;20064;-71
2021/05/17 04:35:09;;;;;;;1.38;0.10;;;9.90;94.50;;;;;;5039924;28;20413;-71
2021/05/17 04:37:35;;;;;;;0.20;0.10;;;9.90;95.10;;;;;;5039888;28;20021;-71
2021/05/17 04:40:01;;;;;;;0.10;0.10;;;9.90;93.70;;;;;;5040191;28;20033;-71
2021/05/17 04:42:27;;;;;;;0.45;0.10;;;10.10;92.20;;;;;;5039850;28;20025;-71
2021/05/17 04:44:52;;;;;;;0.35;0.03;;;10.20;92.30;;;;;;5040040;28;20071;-71
2021/05/17 04:47:18;;;;;;;3.17;0.10;;;10.20;91.30;;;;;;5040049;28;20098;-71
2021/05/17 04:49:44;;;;;;;0.85;0.10;;;10.20;92.90;;;;;;5039716;28;20033;-71
2021/05/17 04:52:09;;;;;;;1.25;0.10;;;10.20;90.90;;;;;;5039947;28;20035;-71
2021/05/17 04:54:35;;;;;;;0.65;0.10;;;10.30;88.20;;;;;;5039776;28;20029;-71
2021/05/17 04:57:01;;;;;;;1.38;0.10;;;10.40;89.80;;;;;;5039547;28;20337;-71
2021/05/17 04:59:26;;;;;;;0.10;0.10;;;10.40;88.40;;;;;;5039855;28;20022;-71
2021/05/17 05:01:52;;;;;;;0.38;0.10;;;10.50;88.50;;;;;;5039820;28;20032;-71
2021/05/17 05:04:18;;;;;;;1.92;0.10;;;10.50;88.40;;;;;;5039674;28;20029;-71
2021/05/17 05:06:44;;;;;;;0.10;0.10;;;10.50;87.70;;;;;;5039398;28;20132;-71
2021/05/17 05:09:10;;;;;;;0.32;0.10;;;10.60;89.60;;;;;;5039395;28;20022;-71
2021/05/17 05:11:35;;;;;;;0.10;0.10;;;10.50;89.00;;;;;;5039525;28;20029;-71
2021/05/17 05:14:02;;;;;;;0.00;0.00;;;10.60;85.90;;;;;;5039259;28;20029;-71
2021/05/17 05:16:27;;;;;;;0.10;0.10;;;10.60;88.80;;;;;;5039504;28;20026;-71
2021/05/17 05:18:53;;;;;;;0.30;0.10;;;10.70;84.90;;;;;;5039168;28;20041;-71
2021/05/17 05:21:19;;;;;;;0.10;0.10;;;10.90;85.50;;;;;;5039406;28;20018;-71
2021/05/17 05:23:46;;;;;;;0.10;0.10;;;10.90;83.00;;;;;;5039458;28;20111;-71
2021/05/17 05:31:43;;;;;;;0.15;0.15;;;11.10;87.90;;;;;;5039243;28;20260;-71
2021/05/17 05:34:09;;;;;;;0.57;0.30;;;11.10;92.70;;;;;;5039194;28;20313;-71
2021/05/17 05:36:35;;;;;;;0.50;0.30;;;11.10;94.70;;;;;;5038826;28;20030;-71
2021/05/17 05:39:01;;;;;;;0.60;0.30;;;11.10;95.30;;;;;;5038819;28;20032;-71
2021/05/17 05:41:27;;;;;;;1.25;0.47;;;11.20;95.90;;;;;;5039006;28;20365;-71
2021/05/17 05:43:53;;;;;;;0.70;0.40;;;11.20;97.80;;;;;;5038004;28;20026;-71
2021/05/17 05:46:19;;;;;;;6.43;0.60;;;11.10;98.00;;;;;;5038658;28;20034;-71
2021/05/17 05:48:47;;;;;;;0.85;0.52;;;11.20;98.00;;;;;;5038899;28;20025;-72
2021/05/17 05:51:25;;;;;;;1.42;0.60;;;11.20;98.00;;;;;;5038531;28;20025;-71
2021/05/17 05:53:51;;;;;;;2.63;0.60;;;11.20;98.00;;;;;;5038384;28;20418;-71
2021/05/17 05:56:18;;;;;;;3.60;0.47;;;11.30;98.00;;;;;;5038379;28;20429;-71
2021/05/17 05:58:45;;;;;;;0.75;0.47;;;11.30;98.00;;;;;;5038695;28;20025;-71
2021/05/17 06:01:11;;;;;;;1.80;0.60;;;11.20;98.00;;;;;;5038679;28;20026;-71
2021/05/17 06:03:38;;;;;;;2.08;0.50;;;11.20;98.00;;;;;;5038327;28;20033;-71
2021/05/17 06:06:04;;;;;;;0.80;0.30;;;11.20;98.00;;;;;;5038248;28;20116;-71
2021/05/17 06:08:33;;;;;;;2.75;0.50;;;11.20;98.00;;;;;;5038491;28;20074;-71
2021/05/17 06:10:59;;;;;;;1.65;0.55;;;11.10;98.00;;;;;;5038497;28;20068;-71
2021/05/17 06:13:25;;;;;;;2.00;0.38;;;11.10;98.00;;;;;;5038428;28;20025;-71
2021/05/17 06:15:52;;;;;;;0.50;0.30;;;11.10;98.00;;;;;;5038298;28;20033;-71
2021/05/17 06:18:18;;;;;;;1.23;0.40;;;11.10;98.00;;;;;;5038397;28;20093;-71
2021/05/17 06:20:43;;;;;;;0.98;0.52;;;11.10;98.00;;;;;;5038268;28;20038;-71
2021/05/17 06:23:12;;;;;;;1.20;0.70;;;11.00;98.00;;;;;;5038328;28;20124;-71
2021/05/17 06:25:40;;;;;;;0.60;0.30;;;11.00;98.00;;;;;;5037960;28;20037;-72
2021/05/17 06:28:06;;;;;;;1.02;0.57;;;11.10;98.00;;;;;;5037875;28;20030;-71
2021/05/17 06:30:42;;;;;;;3.90;0.55;;;11.10;98.00;;;;;;5037723;28;20414;-71
2021/05/17 06:33:08;;;;;;;1.45;0.50;;;11.10;98.00;;;;;;5037758;28;20032;-71
2021/05/17 06:35:40;;;;;;;3.45;0.60;;;11.20;98.00;;;;;;5037713;28;20022;-71
2021/05/17 06:38:06;;;;;;;0.50;0.40;;;11.30;98.00;;;;;;5037700;28;20026;-71
2021/05/17 06:40:32;;;;;;;2.53;0.75;;;11.30;98.00;;;;;;5037557;28;20037;-71
2021/05/17 06:42:58;;;;;;;1.65;0.50;;;11.20;98.00;;;;;;5037620;28;20112;-71
2021/05/17 06:45:24;;;;;;;0.57;0.40;;;11.40;97.80;;;;;;5037813;28;20029;-71
2021/05/17 06:47:50;;;;;;;0.88;0.45;;;11.80;96.80;;;;;;5037815;28;20030;-71
2021/05/17 06:50:17;;;;;;;0.77;0.35;;;12.70;93.80;;;;;;5037443;28;20029;-71
2021/05/17 06:52:42;;;;;;;0.85;0.38;;;14.00;90.70;;;;;;5037614;28;20110;-71
2021/05/17 06:55:18;;;;;;;0.28;0.20;;;14.90;86.20;;;;;;5036467;28;20109;-71
2021/05/17 07:00:37;;;;;;;3.33;0.80;;;15.70;83.80;;;;;;5037319;28;20299;-71
2021/05/17 07:03:07;;;;;;;1.90;0.30;;;16.10;81.70;;;;;;5037106;28;20311;-71
2021/05/17 07:05:35;;;;;;;2.75;0.20;;;16.60;80.50;;;;;;5037390;28;20029;-71
2021/05/17 07:13:17;;;;;;;2.35;0.40;;;17.50;77.60;;;;;;5037133;28;20064;-71
2021/05/17 07:15:44;;;;;;;3.20;0.22;;;18.20;73.20;;;;;;5037257;28;20030;-71
2021/05/17 07:18:10;;;;;;;2.17;0.40;;;18.10;73.20;;;;;;5037311;28;20022;-71
2021/05/17 07:25:57;;;;;;;1.75;0.55;;;18.20;72.90;;;;;;5036911;28;20107;-71
2021/05/17 07:28:23;;;;;;;1.52;0.30;;;18.20;73.20;;;;;;5037168;28;20033;-71
2021/05/17 07:30:50;;;;;;;1.05;0.30;;;18.20;73.30;;;;;;5036775;28;20429;-71
2021/05/17 07:33:16;;;;;;;0.57;0.20;;;18.40;72.90;;;;;;5036746;28;20071;-71
2021/05/17 07:35:43;;;;;;;1.05;0.30;;;18.70;72.60;;;;;;5036679;28;20021;-71
2021/05/17 07:38:09;;;;;;;3.40;0.22;;;19.10;71.80;;;;;;5036707;28;20026;-71
2021/05/17 07:40:35;;;;;;;0.30;0.17;;;19.30;70.40;;;;;;5036660;28;20026;-71
2021/05/17 07:43:02;;;;;;;0.32;0.30;;;19.50;71.70;;;;;;5036663;28;20028;-71
2021/05/17 07:45:27;;;;;;;0.32;0.20;;;20.10;70.80;;;;;;5036847;28;20172;-71
2021/05/17 07:47:53;;;;;;;2.28;0.30;;;20.50;70.30;;;;;;5036926;28;20100;-71
2021/05/17 07:50:19;;;;;;;1.02;0.20;;;20.70;70.70;;;;;;5036823;28;20025;-71
2021/05/17 07:52:45;;;;;;;0.55;0.30;;;20.60;69.50;;;;;;5036513;28;20051;-71
2021/05/17 07:55:12;;;;;;;0.68;0.30;;;20.00;70.10;;;;;;5036811;28;20033;-71
2021/05/17 07:57:38;;;;;;;0.95;0.30;;;20.40;69.10;;;;;;5036510;28;20422;-71
2021/05/17 08:00:06;;;;;;;2.30;0.50;;;20.20;69.90;;;;;;5036466;28;20037;-71
2021/05/17 08:02:32;;;;;;;0.68;0.35;;;19.80;72.20;;;;;;5036792;28;20048;-71
2021/05/17 08:04:57;;;;;;;3.55;0.35;;;19.00;75.30;;;;;;5036399;28;20033;-71
2021/05/17 08:07:23;;;;;;;1.02;0.35;;;19.00;73.30;;;;;;5038803;28;20022;-71
2021/05/17 08:09:51;;;;;;;0.52;0.40;;;19.40;73.30;;;;;;5040780;28;20029;-71
2021/05/17 08:12:17;;;;;;;2.45;0.30;;;19.80;71.80;;;;;;5040694;28;20057;-71
2021/05/17 08:14:43;;;;;;;4.72;0.30;;;20.20;69.70;;;;;;5040629;28;20028;-71
2021/05/17 08:17:09;;;;;;;0.65;0.30;;;20.50;69.40;;;;;;5040366;28;20414;-71
2021/05/17 08:19:35;;;;;;;0.68;0.30;;;20.80;70.20;;;;;;5040582;28;20021;-71
2021/05/17 08:22:02;;;;;;;0.75;0.30;;;20.60;69.90;;;;;;5040237;28;20029;-71
2021/05/17 08:24:28;;;;;;;0.88;0.30;;;20.40;69.40;;;;;;5040096;28;20044;-71
2021/05/17 08:26:54;;;;;;;1.35;0.45;;;20.30;69.00;;;;;;5039997;28;20053;-71
2021/05/17 08:29:20;;;;;;;1.33;0.30;;;20.30;70.70;;;;;;5040083;28;20390;-71
2021/05/17 08:31:49;;;;;;;3.20;0.30;;;20.30;72.00;;;;;;5040269;28;20033;-71
2021/05/17 08:34:14;;;;;;;0.65;0.30;;;20.30;71.00;;;;;;5039952;28;20044;-71
2021/05/17 08:36:40;;;;;;;0.45;0.30;;;20.70;70.70;;;;;;5040271;28;20025;-71
2021/05/17 08:39:07;;;;;;;3.78;0.30;;;21.20;69.10;;;;;;5040236;28;20075;-72
2021/05/17 08:41:37;;;;;;;0.20;0.20;;;21.60;69.20;;;;;;5039877;28;20026;-71
2021/05/17 08:44:04;;;;;;;1.30;0.20;;;22.30;65.20;;;;;;5040102;28;20021;-72
2021/05/17 08:46:30;;;;;;;1.23;0.30;;;22.60;64.30;;;;;;5039764;28;20022;-71
2021/05/17 08:48:56;;;;;;;2.10;0.40;;;23.00;65.60;;;;;;5040045;28;20032;-70
2021/05/17 08:51:32;;;;;;;0.70;0.20;;;23.40;63.30;;;;;;5039993;28;20322;-70
2021/05/17 08:54:01;;;;;;;2.80;0.40;;;23.70;62.10;;;;;;5039871;28;20317;-70
2021/05/17 08:56:27;;;;;;;4.70;0.40;;;23.90;62.90;;;;;;5039542;28;20053;-70
2021/05/17 08:59:01;;;;;;;3.97;0.88;;;24.10;63.20;;;;;;5039895;28;20295;-70
2021/05/17 09:01:27;;;;;;;2.45;0.35;;;24.30;61.10;;;;;;5039476;28;20108;-70
2021/05/17 09:04:04;;;;;;;5.70;1.00;;;24.20;60.40;;;;;;5039738;28;20056;-70
2021/05/17 09:06:55;;;;;;;0.43;0.20;;;24.20;60.20;;;;;;5039756;28;20373;-70
2021/05/17 09:09:23;;;;;;;0.90;0.20;;;24.10;63.60;;;;;;5039450;28;20044;-70
2021/05/17 09:11:51;;;;;;;0.77;0.30;;;23.90;63.90;;;;;;5039265;28;20028;-70
2021/05/17 09:14:18;;;;;;;4.28;0.28;;;24.30;61.40;;;;;;5039556;28;20354;-70
2021/05/17 09:16:49;;;;;;;0.40;0.20;;;24.00;64.10;;;;;;5039549;28;20022;-70
2021/05/17 09:19:16;;;;;;;3.08;0.30;;;23.10;64.40;;;;;;5038127;28;20032;-69
2021/05/17 09:22:10;;;;;;;0.90;0.30;;;22.60;63.10;;;;;;5039413;28;20029;-70
2021/05/17 09:24:52;;;;;;;2.58;0.73;;;21.40;65.90;;;;;;5039390;28;20029;-72
2021/05/17 09:27:29;;;;;;;1.35;0.20;;;20.50;70.20;;;;;;5038862;28;20049;-72
2021/05/17 09:30:01;;;;;;;1.88;0.40;;;20.60;70.10;;;;;;5038952;28;20402;-72
2021/05/17 09:32:39;;;;;;;0.98;0.38;;;20.30;69.60;;;;;;5039021;28;20385;-72
2021/05/17 09:35:10;;;;;;;5.95;0.52;;;19.50;71.20;;;;;;5039150;28;20028;-72
2021/05/17 09:37:50;;;;;;;1.92;0.40;;;18.80;74.30;;;;;;5039101;28;20075;-72
2021/05/17 09:40:23;;;;;;;0.95;0.30;;;18.30;77.30;;;;;;5038810;28;20022;-72
2021/05/17 09:43:12;;;;;;;5.47;1.33;;;17.80;77.40;;;;;;5038789;28;20037;-72
2021/05/17 09:45:43;;;;;;;0.52;0.22;;;17.30;80.90;;;;;;5038928;28;20025;-72
2021/05/17 09:48:11;;;;;;;3.38;0.40;;;17.00;78.90;;;;;;5038661;28;20056;-72
2021/05/17 09:51:01;;;;;;;0.85;0.30;;;16.80;81.40;;;;;;5038885;28;20029;-72
2021/05/17 09:53:30;;;;;;;2.40;0.30;;;16.80;78.50;;;;;;5038811;28;20029;-71
2021/05/17 09:55:56;;;;;;;1.30;0.40;;;16.70;81.20;;;;;;5038884;28;20049;-72
2021/05/17 09:58:27;;;;;;;6.25;0.40;;;16.50;81.80;;;;;;5038458;28;20495;-72
2021/05/17 10:01:11;;;;;;;4.30;0.40;;;16.50;81.10;;;;;;5038674;28;20037;-72
2021/05/17 10:03:43;;;;;;;1.00;0.35;;;16.60;81.60;;;;;;5038673;28;20026;-71
2021/05/17 10:06:25;;;;;;;3.17;0.47;;;16.70;80.90;;;;;;5038239;28;20036;-71
2021/05/17 10:08:53;;;;;;;2.10;0.30;;;16.90;80.30;;;;;;5038248;28;20029;-72
2021/05/17 10:11:20;;;;;;;1.52;0.40;;;17.10;78.10;;;;;;5038499;28;20322;-72
2021/05/17 10:13:47;;;;;;;0.93;0.30;;;17.40;78.80;;;;;;5037906;28;20029;-72
2021/05/17 10:16:15;;;;;;;2.38;0.40;;;17.30;80.30;;;;;;5032815;28;20026;-72
2021/05/17 10:18:42;;;;;;;0.60;0.30;;;17.30;80.10;;;;;;5029524;28;20033;-72
2021/05/17 10:21:17;;;;;;;0.60;0.30;;;17.30;78.20;;;;;;5038330;28;20044;-72
2021/05/17 10:23:44;;;;;;;2.08;0.30;;;17.00;75.90;;;;;;5038008;28;20025;-72
2021/05/17 10:26:15;;;;;;;0.88;0.30;;;16.60;75.70;;;;;;5037611;28;20082;-72
2021/05/17 10:28:47;;;;;;;0.45;0.32;;;16.30;78.60;;;;;;5038224;28;20307;-72
2021/05/17 10:31:18;;;;;;;1.65;0.38;;;16.20;79.80;;;;;;5037989;28;20121;-72
2021/05/17 10:34:03;;;;;;;3.78;0.30;;;16.00;82.30;;;;;;5037755;28;20060;-72
2021/05/17 10:36:53;;;;;;;1.58;0.50;;;15.90;81.90;;;;;;5037816;28;20032;-72
2021/05/17 10:39:23;;;;;;;2.13;0.57;;;15.90;79.40;;;;;;5037698;28;20031;-72
2021/05/17 10:42:40;;;;;;;2.28;0.30;;;15.90;82.80;;;;;;5037927;28;20045;-72
2021/05/17 10:48:32;;;;;;;1.77;0.65;;;15.80;83.30;;;;;;5037850;28;20051;-72
2021/05/17 10:51:17;;;;;;;7.55;0.55;;;15.70;84.20;;;;;;5037723;28;20076;-72
2021/05/17 10:53:58;;;;;;;1.73;0.40;;;15.60;83.70;;;;;;5037365;28;20059;-72
2021/05/17 10:56:40;;;;;;;1.00;0.32;;;15.50;84.70;;;;;;5037892;28;20049;-71
2021/05/17 11:02:08;;;;;;;1.10;0.38;;;15.60;86.80;;;;;;5037369;28;20032;-72
2021/05/17 11:04:35;;;;;;;1.17;0.40;;;15.70;85.70;;;;;;5037145;28;20052;-71
2021/05/17 11:07:29;;;;;;;2.22;0.30;;;15.90;86.90;;;;;;5037154;28;20457;-72
2021/05/17 11:10:15;;;;;;;2.75;0.30;;;16.10;86.00;;;;;;5037160;28;20520;-72
2021/05/17 11:12:41;;;;;;;0.80;0.43;;;16.40;87.70;;;;;;5037048;28;20029;-72
2021/05/17 11:15:12;;;;;;;0.77;0.40;;;16.70;83.30;;;;;;5037010;28;20104;-72
2021/05/17 11:18:05;;;;;;;1.75;1.17;;;16.80;82.90;;;;;;5037054;28;20108;-72
2021/05/17 11:20:50;;;;;;;0.90;0.40;;;16.90;80.40;;;;;;5037277;28;20151;-72
2021/05/17 11:23:16;;;;;;;1.75;0.50;;;17.90;81.20;;;;;;5037225;28;20049;-72
2021/05/17 11:25:48;;;;;;;1.75;0.57;;;19.40;77.50;;;;;;5036986;28;20037;-72
2021/05/17 11:28:14;;;;;;;1.40;0.40;;;20.50;71.80;;;;;;5037152;28;20044;-72
2021/05/17 11:30:42;;;;;;;1.63;0.40;;;20.90;69.90;;;;;;5036798;28;20064;-72
2021/05/17 11:33:26;;;;;;;1.27;0.40;;;21.60;68.50;;;;;;5037095;28;20026;-72
2021/05/17 11:36:09;;;;;;;1.58;0.60;;;21.60;64.70;;;;;;5037030;28;20100;-72
2021/05/17 11:38:35;;;;;;;0.80;0.38;;;20.70;70.60;;;;;;5037076;28;20037;-72
2021/05/17 11:41:17;;;;;;;1.02;0.60;;;19.80;71.90;;;;;;5036500;28;20025;-72
2021/05/17 11:43:43;;;;;;;3.10;0.32;;;19.00;73.60;;;;;;5037008;28;20029;-72
2021/05/17 11:46:16;;;;;;;0.45;0.30;;;18.10;75.60;;;;;;5036518;28;20422;-72
2021/05/17 11:48:44;;;;;;;1.30;0.47;;;17.60;72.50;;;;;;5036970;28;20326;-72
2021/05/17 11:51:09;;;;;;;3.95;0.60;;;17.20;75.60;;;;;;5036896;28;20029;-72
2021/05/17 11:53:44;;;;;;;2.08;0.70;;;17.10;76.70;;;;;;5036831;28;20029;-72
2021/05/17 11:56:10;;;;;;;1.75;0.70;;;17.00;77.40;;;;;;5036968;28;20052;-72
2021/05/17 11:58:36;;;;;;;1.08;0.60;;;17.00;77.50;;;;;;5036533;28;20026;-72
2021/05/17 12:01:14;;;;;;;3.83;0.50;;;17.30;75.30;;;;;;5036807;28;20033;-72
2021/05/17 12:03:41;;;;;;;2.40;0.60;;;17.50;79.20;;;;;;5036876;28;20025;-72
2021/05/17 12:06:07;;;;;;;3.00;0.50;;;17.50;76.80;;;;;;5036376;28;20029;-72
2021/05/17 12:08:34;;;;;;;1.15;0.60;;;17.30;76.20;;;;;;5036432;28;20033;-72
2021/05/17 12:10:59;;;;;;;1.17;0.40;;;17.10;77.60;;;;;;5036675;28;20026;-71
2021/05/17 12:13:25;;;;;;;1.98;0.60;;;17.10;75.50;;;;;;5036334;28;20022;-72
2021/05/17 12:15:51;;;;;;;4.70;0.60;;;16.90;76.40;;;;;;5036617;28;20022;-72
2021/05/17 12:18:16;;;;;;;1.25;0.45;;;16.80;76.90;;;;;;5036385;28;20299;-72
2021/05/17 12:20:42;;;;;;;1.20;0.45;;;17.00;77.00;;;;;;5036617;28;20029;-72
2021/05/17 12:23:08;;;;;;;5.10;0.40;;;17.20;79.20;;;;;;5036353;28;20417;-72
2021/05/17 12:25:35;;;;;;;1.83;0.50;;;17.80;80.70;;;;;;5036486;28;20033;-72
2021/05/17 12:28:02;;;;;;;2.22;0.60;;;18.20;78.30;;;;;;5036050;28;20049;-72
2021/05/17 12:30:28;;;;;;;4.50;0.40;;;18.30;75.20;;;;;;5036210;28;20042;-72
2021/05/17 12:33:01;;;;;;;0.70;0.40;;;18.40;76.20;;;;;;5036484;28;20081;-71
2021/05/17 12:35:38;;;;;;;3.00;0.60;;;18.80;79.40;;;;;;5036412;28;20034;-72
2021/05/17 12:38:15;;;;;;;0.93;0.30;;;19.30;78.50;;;;;;5036458;28;20362;-72
2021/05/17 12:40:42;;;;;;;2.22;0.40;;;19.50;73.10;;;;;;5036125;28;20037;-72
2021/05/17 12:43:16;;;;;;;2.05;0.30;;;19.40;75.40;;;;;;5036447;28;20095;-72
2021/05/17 12:45:48;;;;;;;0.85;0.40;;;19.10;72.50;;;;;;5036362;28;20053;-72
2021/05/17 12:48:20;;;;;;;2.28;0.40;;;18.90;75.60;;;;;;5036369;28;20317;-72
2021/05/17 12:50:48;;;;;;;3.00;0.68;;;19.10;75.10;;;;;;5036359;28;20067;-72
2021/05/17 12:53:18;;;;;;;5.07;0.60;;;19.50;78.40;;;;;;5037986;28;20125;-72
2021/05/17 12:55:51;;;;;;;4.00;0.75;;;19.80;72.70;;;;;;5039972;28;20166;-72
2021/05/17 12:58:31;;;;;;;2.90;0.50;;;19.60;71.30;;;;;;5039570;28;20482;-72
2021/05/17 13:00:59;;;;;;;2.88;0.60;;;19.40;71.80;;;;;;5039462;28;20068;-72
2021/05/17 13:03:27;;;;;;;2.67;0.70;;;19.10;72.30;;;;;;5039879;28;20295;-72
2021/05/17 13:06:05;;;;;;;1.80;0.50;;;18.80;71.20;;;;;;5039354;28;20041;-72
2021/05/17 13:08:36;;;;;;;2.35;0.70;;;18.60;72.60;;;;;;5039758;28;20037;-72
2021/05/17 13:11:07;;;;;;;1.90;0.52;;;18.00;73.30;;;;;;5039635;28;20033;-72
2021/05/17 13:13:41;;;;;;;1.83;0.40;;;17.50;73.90;;;;;;5039192;28;20026;-72
2021/05/17 13:16:16;;;;;;;2.40;0.55;;;16.90;74.90;;;;;;5039264;28;20033;-72
2021/05/17 13:19:03;;;;;;;0.88;0.50;;;16.60;78.40;;;;;;5039580;28;20397;-72
2021/05/17 13:21:36;;;;;;;1.98;0.40;;;16.40;77.90;;;;;;5039243;28;20037;-72
2021/05/17 13:32:49;;;;;;;1.77;0.80;;;15.90;84.00;;;;;;5038602;28;20044;-72
2021/05/17 13:35:16;;;;;;;0.95;0.40;;;15.90;81.20;;;;;;5039156;28;20071;-72
2021/05/17 13:37:42;;;;;;;0.88;0.50;;;15.90;82.70;;;;;;5039133;28;20032;-72